createdAt,value
2023-03-02T00:01:10.788Z,7.20
2023-03-02T00:03:40.533Z,7.20
2023-03-02T00:06:08.624Z,7.21
2023-03-02T00:08:36.453Z,7.21
2023-03-02T00:11:03.379Z,7.22
2023-03-02T00:13:32.333Z,7.20
2023-03-02T00:15:59.146Z,7.19
2023-03-02T00:18:25.944Z,7.20
2023-03-02T00:20:52.683Z,7.20
2023-03-02T00:23:19.504Z,7.19
2023-03-02T00:25:46.360Z,7.21
2023-03-02T00:28:13.081Z,7.20
2023-03-02T00:30:40.233Z,7.20
2023-03-02T00:33:07.017Z,7.19
2023-03-02T00:35:41.436Z,7.21
2023-03-02T00:38:08.652Z,7.20
2023-03-02T00:40:36.226Z,7.21
2023-03-02T00:43:03.172Z,7.22
2023-03-02T00:45:30.730Z,7.20
2023-03-02T00:47:57.522Z,7.21
2023-03-02T00:50:24.367Z,7.22
2023-03-02T00:52:51.152Z,7.21
2023-03-02T00:55:17.998Z,7.21
2023-03-02T00:57:44.770Z,7.20
2023-03-02T01:00:11.887Z,7.19
2023-03-02T01:02:44.436Z,7.17
2023-03-02T01:05:11.614Z,7.17
2023-03-02T01:07:38.352Z,7.17
2023-03-02T01:10:05.610Z,7.16
2023-03-02T01:12:32.593Z,7.15
2023-03-02T01:14:59.568Z,7.13
2023-03-02T01:17:26.640Z,7.12
2023-03-02T01:19:54.212Z,7.11
2023-03-02T01:22:27.988Z,7.05
2023-03-02T01:24:54.738Z,7.01
2023-03-02T01:27:22.268Z,6.98
2023-03-02T01:29:50.740Z,6.96
2023-03-02T01:32:17.536Z,6.97
2023-03-02T01:34:44.296Z,6.98
2023-03-02T01:37:11.105Z,6.96
2023-03-02T01:39:38.029Z,6.95
2023-03-02T01:42:04.876Z,6.93
2023-03-02T01:44:37.400Z,6.93
2023-03-02T01:47:14.190Z,6.92
2023-03-02T01:49:49.209Z,6.90
2023-03-02T01:52:17.833Z,6.87
2023-03-02T01:54:49.887Z,6.85
2023-03-02T01:57:25.972Z,6.85
2023-03-02T01:59:59.672Z,6.81
2023-03-02T02:02:26.793Z,6.75
2023-03-02T02:04:56.165Z,6.73
2023-03-02T02:07:22.937Z,6.69
2023-03-02T02:09:52.636Z,6.69
2023-03-02T02:12:22.677Z,6.65
2023-03-02T02:14:50.417Z,6.63
2023-03-02T02:17:19.609Z,6.60
2023-03-02T02:20:00.548Z,6.59
2023-03-02T02:23:09.027Z,6.58
2023-03-02T02:25:55.550Z,6.55
2023-03-02T02:28:37.510Z,6.52
2023-03-02T02:31:27.763Z,6.51
2023-03-02T02:34:03.378Z,6.48
2023-03-02T02:36:36.045Z,6.42
2023-03-02T02:39:06.069Z,6.37
2023-03-02T02:41:37.600Z,6.34
2023-03-02T02:44:04.654Z,6.33
2023-03-02T02:46:32.999Z,6.34
2023-03-02T02:49:02.235Z,6.24
2023-03-02T02:51:29.870Z,6.16
2023-03-02T02:53:59.994Z,6.14
2023-03-02T02:56:39.765Z,6.12
2023-03-02T02:59:16.348Z,6.15
2023-03-02T03:01:44.638Z,6.05
2023-03-02T03:04:18.139Z,5.99
2023-03-02T03:07:04.358Z,6.00
2023-03-02T03:09:32.402Z,5.96
2023-03-02T03:12:08.600Z,5.91
2023-03-02T03:14:39.446Z,5.83
2023-03-02T03:17:12.084Z,5.81
2023-03-02T03:19:45.292Z,5.78
2023-03-02T03:22:14.427Z,5.75
2023-03-02T03:24:43.489Z,5.70
2023-03-02T03:27:13.582Z,5.68
2023-03-02T03:29:48.416Z,5.67
2023-03-02T03:32:16.287Z,5.60
2023-03-02T03:34:43.499Z,5.56
2023-03-02T03:37:13.587Z,5.51
2023-03-02T03:39:40.601Z,5.53
2023-03-02T03:42:07.417Z,5.50
2023-03-02T03:44:34.335Z,5.48
2023-03-02T03:47:01.529Z,5.40
2023-03-02T03:49:28.959Z,5.42
2023-03-02T03:51:55.726Z,5.39
2023-03-02T03:54:22.523Z,5.35
2023-03-02T03:56:50.288Z,5.36
2023-03-02T03:59:20.831Z,5.33
2023-03-02T04:01:51.431Z,5.33
2023-03-02T04:04:25.001Z,5.33
2023-03-02T04:06:52.832Z,5.28
2023-03-02T04:09:19.968Z,5.27
2023-03-02T04:11:49.449Z,5.26
2023-03-02T04:14:17.412Z,5.27
2023-03-02T04:16:44.777Z,5.26
2023-03-02T04:19:12.398Z,5.27
2023-03-02T04:21:41.089Z,5.28
2023-03-02T04:24:08.963Z,5.23
2023-03-02T04:26:37.924Z,5.23
2023-03-02T04:29:05.748Z,5.20
2023-03-02T04:31:33.321Z,5.19
2023-03-02T04:34:00.810Z,5.20
2023-03-02T04:36:27.589Z,5.17
2023-03-02T04:38:54.565Z,5.18
2023-03-02T04:41:22.332Z,5.15
2023-03-02T04:43:49.424Z,5.16
2023-03-02T04:46:21.836Z,5.16
2023-03-02T04:48:48.765Z,5.15
2023-03-02T04:51:32.449Z,5.12
2023-03-02T04:54:04.922Z,5.12
2023-03-02T04:56:32.260Z,5.08
2023-03-02T04:58:59.300Z,5.12
2023-03-02T05:01:26.701Z,5.10
2023-03-02T05:03:53.515Z,5.09
2023-03-02T05:06:21.908Z,5.09
2023-03-02T05:08:48.708Z,5.05
2023-03-02T05:11:22.072Z,5.05
2023-03-02T05:14:00.504Z,5.02
2023-03-02T05:16:29.645Z,4.99
2023-03-02T05:18:56.511Z,5.01
2023-03-02T05:21:24.080Z,5.00
2023-03-02T05:23:51.235Z,4.96
2023-03-02T05:26:18.139Z,4.95
2023-03-02T05:28:45.758Z,4.94
2023-03-02T05:31:32.546Z,4.95
2023-03-02T05:33:59.353Z,4.93
2023-03-02T05:36:26.203Z,4.92
2023-03-02T05:38:53.112Z,4.91
2023-03-02T05:41:19.890Z,4.89
2023-03-02T05:43:46.780Z,4.86
2023-03-02T05:46:13.533Z,4.87
2023-03-02T05:48:41.292Z,4.85
2023-03-02T05:51:08.068Z,4.85
2023-03-02T05:53:34.908Z,4.83
2023-03-02T05:56:01.655Z,4.81
2023-03-02T05:58:28.419Z,4.78
2023-03-02T06:00:55.505Z,4.77
2023-03-02T06:03:22.371Z,4.78
2023-03-02T06:05:52.478Z,4.79
2023-03-02T06:08:21.516Z,4.80
2023-03-02T06:10:50.919Z,4.78
2023-03-02T06:13:18.145Z,4.78
2023-03-02T06:15:45.019Z,4.81
2023-03-02T06:18:12.723Z,4.82
2023-03-02T06:20:40.630Z,4.83
2023-03-02T06:23:07.613Z,4.83
2023-03-02T06:25:36.010Z,4.85
2023-03-02T06:28:02.808Z,4.87
2023-03-02T06:30:29.652Z,4.89
2023-03-02T06:32:56.660Z,4.91
2023-03-02T06:35:24.221Z,4.90
2023-03-02T06:37:51.375Z,4.93
2023-03-02T06:40:18.407Z,4.93
2023-03-02T06:42:45.168Z,4.99
2023-03-02T06:45:12.514Z,5.02
2023-03-02T06:47:39.486Z,5.05
2023-03-02T06:50:07.084Z,5.11
2023-03-02T06:52:35.112Z,5.15
2023-03-02T06:55:03.001Z,5.15
2023-03-02T06:57:35.707Z,5.19
2023-03-02T07:00:10.289Z,5.23
2023-03-02T07:02:37.676Z,5.27
2023-03-02T07:05:05.842Z,5.30
2023-03-02T07:07:32.927Z,5.32
2023-03-02T07:09:59.734Z,5.35
2023-03-02T07:12:26.507Z,5.38
2023-03-02T07:14:53.447Z,5.40
2023-03-02T07:17:20.248Z,5.43
2023-03-02T07:19:47.409Z,5.46
2023-03-02T07:22:14.219Z,5.50
2023-03-02T07:24:40.936Z,5.54
2023-03-02T07:27:07.673Z,5.58
2023-03-02T07:29:34.408Z,5.62
2023-03-02T07:32:01.250Z,5.65
2023-03-02T07:34:28.146Z,5.68
2023-03-02T07:36:54.942Z,5.72
2023-03-02T07:39:21.936Z,5.75
2023-03-02T07:41:48.805Z,5.78
2023-03-02T07:44:15.868Z,5.81
2023-03-02T07:46:42.724Z,5.82
2023-03-02T07:49:09.499Z,5.84
2023-03-02T07:51:36.303Z,5.84
2023-03-02T07:54:05.048Z,5.87
2023-03-02T07:56:31.929Z,5.90
2023-03-02T07:58:58.700Z,5.93
2023-03-02T08:01:25.681Z,5.97
2023-03-02T08:03:52.486Z,6.00
2023-03-02T08:06:19.624Z,6.03
2023-03-02T08:08:46.462Z,6.05
2023-03-02T08:11:15.769Z,6.08
2023-03-02T08:13:42.871Z,6.12
2023-03-02T08:16:12.403Z,6.15
2023-03-02T08:18:40.175Z,6.18
2023-03-02T08:21:15.799Z,6.22
2023-03-02T08:23:42.869Z,6.26
2023-03-02T08:26:13.181Z,6.29
2023-03-02T08:28:41.300Z,6.36
2023-03-02T08:31:09.561Z,6.48
2023-03-02T08:33:36.868Z,6.49
2023-03-02T08:36:07.174Z,6.45
2023-03-02T08:38:35.844Z,6.49
2023-03-02T08:41:06.601Z,6.52
2023-03-02T08:43:34.101Z,6.55
2023-03-02T08:46:01.430Z,6.57
2023-03-02T08:48:28.616Z,6.60
2023-03-02T08:51:13.461Z,6.62
2023-03-02T08:53:42.995Z,6.71
2023-03-02T08:56:19.964Z,6.72
2023-03-02T08:58:48.834Z,6.73
2023-03-02T09:01:21.007Z,6.76
2023-03-02T09:03:47.873Z,6.80
2023-03-02T09:06:15.362Z,6.84
2023-03-02T09:08:42.568Z,6.87
2023-03-02T09:11:09.538Z,6.91
2023-03-02T09:13:37.422Z,6.94
2023-03-02T09:16:05.240Z,6.98
2023-03-02T09:18:32.182Z,7.02
2023-03-02T09:20:59.002Z,7.06
2023-03-02T09:23:27.142Z,7.10
2023-03-02T09:25:54.416Z,7.15
2023-03-02T09:28:23.975Z,7.19
2023-03-02T09:30:53.363Z,7.23
2023-03-02T09:33:21.222Z,7.28
2023-03-02T09:35:48.021Z,7.32
2023-03-02T09:38:18.435Z,7.38
2023-03-02T09:41:00.557Z,7.44
2023-03-02T09:43:59.950Z,7.51
2023-03-02T09:46:32.657Z,7.58
2023-03-02T09:49:33.470Z,7.65
2023-03-02T09:52:15.638Z,7.74
2023-03-02T09:54:42.429Z,7.81
2023-03-02T09:57:25.570Z,7.88
2023-03-02T10:00:06.576Z,7.94
2023-03-02T10:03:14.868Z,8.02
2023-03-02T10:05:49.214Z,8.11
2023-03-02T10:08:22.787Z,8.16
2023-03-02T10:10:55.312Z,8.21
2023-03-02T10:13:34.018Z,8.29
2023-03-02T10:16:19.256Z,8.36
2023-03-02T10:18:49.550Z,8.43
2023-03-02T10:21:33.064Z,8.51
2023-03-02T10:24:14.255Z,8.58
2023-03-02T10:26:44.783Z,8.69
2023-03-02T10:29:38.965Z,8.76
2023-03-02T10:32:26.858Z,8.84
2023-03-02T10:34:54.141Z,9.03
2023-03-02T10:37:25.398Z,9.14
2023-03-02T10:39:52.891Z,9.11
2023-03-02T10:42:29.961Z,9.22
2023-03-02T10:45:06.302Z,9.26
2023-03-02T10:47:33.153Z,9.27
2023-03-02T10:49:59.917Z,9.33
2023-03-02T10:52:28.976Z,9.38
2023-03-02T10:55:04.257Z,9.43
2023-03-02T10:57:39.892Z,9.47
2023-03-02T11:00:24.837Z,9.51
2023-03-02T11:03:00.902Z,9.57
2023-03-02T11:05:39.152Z,9.61
2023-03-02T11:08:09.700Z,9.66
2023-03-02T11:10:42.180Z,9.69
2023-03-02T11:13:26.637Z,9.73
2023-03-02T11:15:56.525Z,9.77
2023-03-02T11:18:26.421Z,9.82
2023-03-02T11:20:57.410Z,9.88
2023-03-02T11:23:37.827Z,9.92
2023-03-02T11:26:15.900Z,9.95
2023-03-02T11:28:59.470Z,9.99
2023-03-02T11:31:45.962Z,10.03
2023-03-02T11:34:49.386Z,10.06
2023-03-02T11:37:45.377Z,10.09
2023-03-02T11:40:23.761Z,10.13
2023-03-02T11:42:51.228Z,10.17
2023-03-02T11:45:22.896Z,10.19
2023-03-02T11:48:18.259Z,10.22
2023-03-02T11:50:59.093Z,10.26
2023-03-02T11:53:51.828Z,10.28
2023-03-02T11:56:18.854Z,10.32
2023-03-02T11:58:51.265Z,10.34
2023-03-02T12:01:22.247Z,10.37
2023-03-02T12:03:49.129Z,10.39
2023-03-02T12:06:21.907Z,10.40
2023-03-02T12:08:51.830Z,10.43
2023-03-02T12:11:18.579Z,10.47
2023-03-02T12:13:49.304Z,10.50
2023-03-02T12:16:36.676Z,10.53
2023-03-02T12:19:29.535Z,10.57
2023-03-02T12:21:57.873Z,10.60
2023-03-02T12:24:28.603Z,10.63
2023-03-02T12:27:25.746Z,10.66
2023-03-02T12:30:23.534Z,10.67
2023-03-02T12:32:59.309Z,10.69
2023-03-02T12:35:26.785Z,10.73
2023-03-02T12:38:07.090Z,10.74
2023-03-02T12:40:40.663Z,10.77
2023-03-02T12:43:35.892Z,10.80
2023-03-02T12:46:21.136Z,10.83
2023-03-02T12:48:56.945Z,10.87
2023-03-02T12:51:27.112Z,10.89
2023-03-02T12:54:12.711Z,10.92
2023-03-02T12:56:39.680Z,10.94
2023-03-02T12:59:06.678Z,10.98
2023-03-02T13:01:34.707Z,11.02
2023-03-02T13:04:01.550Z,11.06
2023-03-02T13:06:32.382Z,11.11
2023-03-02T13:09:00.715Z,11.16
2023-03-02T13:11:32.208Z,11.18
2023-03-02T13:14:05.944Z,11.22
2023-03-02T13:16:37.021Z,11.25
2023-03-02T13:19:14.894Z,11.30
2023-03-02T13:21:42.039Z,11.34
2023-03-02T13:24:44.072Z,11.39
2023-03-02T13:27:18.307Z,11.42
2023-03-02T13:29:45.745Z,11.44
2023-03-02T13:32:27.887Z,11.47
2023-03-02T13:34:58.001Z,11.49
2023-03-02T13:37:34.926Z,11.51
2023-03-02T13:40:06.860Z,11.54
2023-03-02T13:42:39.929Z,11.57
2023-03-02T13:45:21.663Z,11.61
2023-03-02T13:47:48.591Z,11.60
2023-03-02T13:50:24.308Z,11.62
2023-03-02T13:52:52.795Z,11.64
2023-03-02T13:55:21.338Z,11.64
2023-03-02T13:57:50.368Z,11.64
2023-03-02T14:00:22.215Z,11.67
2023-03-02T14:02:50.529Z,11.68
2023-03-02T14:05:33.161Z,11.68
2023-03-02T14:08:01.110Z,11.70
2023-03-02T14:10:28.134Z,11.71
2023-03-02T14:13:08.565Z,11.74
2023-03-02T14:15:42.250Z,11.73
2023-03-02T14:18:27.363Z,11.74
2023-03-02T14:20:54.806Z,11.75
2023-03-02T14:23:21.616Z,11.75
2023-03-02T14:25:49.904Z,11.75
2023-03-02T14:28:30.071Z,11.76
2023-03-02T14:30:58.436Z,11.76
2023-03-02T14:33:26.102Z,11.77
2023-03-02T14:35:56.630Z,11.76
2023-03-02T14:38:26.469Z,11.77
2023-03-02T14:40:53.456Z,11.77
2023-03-02T14:43:21.319Z,11.78
2023-03-02T14:45:48.185Z,11.78
2023-03-02T14:48:15.078Z,11.79
2023-03-02T14:50:48.930Z,11.80
2023-03-02T14:53:19.644Z,11.81
2023-03-02T14:55:46.894Z,11.81
2023-03-02T14:58:16.305Z,11.81
2023-03-02T15:00:44.253Z,11.80
2023-03-02T15:03:22.653Z,11.81
2023-03-02T15:06:00.806Z,11.81
2023-03-02T15:08:29.092Z,11.83
2023-03-02T15:10:55.884Z,11.82
2023-03-02T15:13:22.724Z,11.82
2023-03-02T15:15:50.192Z,11.83
2023-03-02T15:18:19.830Z,11.84
2023-03-02T15:20:47.013Z,11.83
2023-03-02T15:23:13.911Z,11.83
2023-03-02T15:25:40.810Z,11.84
2023-03-02T15:28:07.684Z,11.85
2023-03-02T15:30:34.441Z,11.84
2023-03-02T15:33:01.280Z,11.84
2023-03-02T15:35:29.332Z,11.84
2023-03-02T15:37:58.322Z,11.83
2023-03-02T15:40:25.738Z,11.83
2023-03-02T15:42:53.162Z,11.83
2023-03-02T15:45:19.971Z,11.82
2023-03-02T15:47:46.852Z,11.81
2023-03-02T15:50:13.746Z,11.82
2023-03-02T15:52:41.602Z,11.82
2023-03-02T15:55:08.808Z,11.80
2023-03-02T15:57:39.274Z,11.81
2023-03-02T16:00:07.318Z,11.78
2023-03-02T16:02:34.614Z,11.78
2023-03-02T16:05:01.537Z,11.78
2023-03-02T16:07:28.344Z,11.76
2023-03-02T16:09:55.251Z,11.76
2023-03-02T16:12:24.773Z,11.76
2023-03-02T16:14:51.584Z,11.73
2023-03-02T16:17:22.037Z,11.73
2023-03-02T16:19:48.821Z,11.71
2023-03-02T16:22:15.684Z,11.69
2023-03-02T16:24:42.714Z,11.66
2023-03-02T16:27:09.554Z,11.65
2023-03-02T16:29:36.507Z,11.64
2023-03-02T16:32:03.523Z,11.60
2023-03-02T16:34:30.512Z,11.58
2023-03-02T16:36:57.478Z,11.53
2023-03-02T16:39:24.611Z,11.50
2023-03-02T16:41:51.434Z,11.45
2023-03-02T16:44:19.318Z,11.43
2023-03-02T16:46:46.520Z,11.37
2023-03-02T16:49:14.575Z,11.32
2023-03-02T16:51:42.811Z,11.28
2023-03-02T16:54:11.166Z,11.22
2023-03-02T16:56:38.107Z,11.19
2023-03-02T16:59:05.088Z,11.15
2023-03-02T17:01:32.028Z,11.13
2023-03-02T17:03:58.982Z,11.08
2023-03-02T17:06:26.308Z,11.04
2023-03-02T17:08:53.441Z,11.04
2023-03-02T17:11:20.622Z,10.99
2023-03-02T17:13:47.874Z,10.98
2023-03-02T17:16:16.389Z,10.94
2023-03-02T17:18:46.902Z,10.89
2023-03-02T17:21:16.591Z,10.89
2023-03-02T17:23:48.312Z,10.86
2023-03-02T17:26:17.295Z,10.84
2023-03-02T17:28:44.288Z,10.80
2023-03-02T17:31:11.747Z,10.79
2023-03-02T17:33:39.608Z,10.77
2023-03-02T17:36:12.036Z,10.74
2023-03-02T17:38:41.016Z,10.73
2023-03-02T17:41:10.867Z,10.69
2023-03-02T17:43:39.675Z,10.67
2023-03-02T17:46:20.986Z,10.66
2023-03-02T17:48:51.074Z,10.65
2023-03-02T17:51:20.185Z,10.62
2023-03-02T17:53:49.434Z,10.59
2023-03-02T17:56:19.048Z,10.56
2023-03-02T17:58:46.540Z,10.53
2023-03-02T18:01:16.205Z,10.53
2023-03-02T18:03:45.477Z,10.49
2023-03-02T18:06:13.821Z,10.46
2023-03-02T18:08:44.337Z,10.41
2023-03-02T18:11:12.728Z,10.43
2023-03-02T18:13:40.524Z,10.38
2023-03-02T18:16:08.058Z,10.34
2023-03-02T18:18:35.108Z,10.33
2023-03-02T18:21:02.533Z,10.31
2023-03-02T18:23:31.408Z,10.28
2023-03-02T18:25:58.711Z,10.27
2023-03-02T18:28:29.117Z,10.25
2023-03-02T18:30:56.599Z,10.21
2023-03-02T18:33:23.555Z,10.17
2023-03-02T18:35:50.569Z,10.16
2023-03-02T18:38:17.816Z,10.14
2023-03-02T18:40:45.484Z,10.15
2023-03-02T18:43:13.120Z,10.12
2023-03-02T18:45:41.831Z,10.10
2023-03-02T18:48:09.217Z,10.08
2023-03-02T18:50:37.637Z,10.05
2023-03-02T18:53:05.035Z,10.03
2023-03-02T18:55:32.765Z,9.97
2023-03-02T18:58:00.513Z,9.97
2023-03-02T19:00:28.378Z,9.93
2023-03-02T19:02:57.430Z,9.91
2023-03-02T19:05:27.351Z,9.92
2023-03-02T19:07:59.559Z,9.89
2023-03-02T19:10:26.893Z,9.88
2023-03-02T19:12:54.566Z,9.86
2023-03-02T19:15:22.128Z,9.88
2023-03-02T19:17:52.316Z,9.87
2023-03-02T19:20:23.588Z,9.88
2023-03-02T19:22:51.163Z,9.88
2023-03-02T19:25:18.753Z,9.89
2023-03-02T19:27:46.492Z,9.91
2023-03-02T19:30:19.148Z,9.91
2023-03-02T19:32:48.399Z,9.90
2023-03-02T19:35:21.501Z,9.91
2023-03-02T19:37:49.244Z,9.91
2023-03-02T19:40:20.356Z,9.91
2023-03-02T19:42:48.064Z,9.92
2023-03-02T19:45:20.134Z,9.89
2023-03-02T19:47:48.212Z,9.91
2023-03-02T19:50:19.766Z,9.97
2023-03-02T19:52:47.838Z,10.00
2023-03-02T19:55:16.529Z,9.91
2023-03-02T19:57:49.268Z,9.84
2023-03-02T20:00:18.169Z,9.82
2023-03-02T20:02:47.742Z,9.80
2023-03-02T20:05:17.208Z,9.76
2023-03-02T20:07:45.123Z,9.72
2023-03-02T20:10:30.826Z,9.70
2023-03-02T20:12:59.843Z,9.68
2023-03-02T20:15:30.536Z,9.67
2023-03-02T20:17:59.507Z,9.64
2023-03-02T20:20:29.788Z,9.62
2023-03-02T20:22:58.131Z,9.60
2023-03-02T20:25:27.106Z,9.56
2023-03-02T20:27:57.132Z,9.56
2023-03-02T20:30:34.399Z,9.50
2023-03-02T20:33:03.574Z,9.48
2023-03-02T20:35:35.519Z,9.47
2023-03-02T20:38:06.801Z,9.46
2023-03-02T20:40:35.037Z,9.40
2023-03-02T20:43:06.366Z,9.39
2023-03-02T20:45:33.854Z,9.38
2023-03-02T20:48:02.207Z,9.36
2023-03-02T20:50:31.813Z,9.33
2023-03-02T20:53:01.435Z,9.29
2023-03-02T20:55:30.460Z,9.27
2023-03-02T20:57:58.858Z,9.21
2023-03-02T21:00:30.144Z,9.18
2023-03-02T21:02:58.969Z,9.14
2023-03-02T21:05:28.496Z,9.13
2023-03-02T21:07:56.043Z,9.10
2023-03-02T21:10:33.620Z,9.08
2023-03-02T21:13:01.927Z,9.02
2023-03-02T21:15:29.367Z,8.97
2023-03-02T21:17:57.464Z,8.93
2023-03-02T21:20:28.663Z,8.85
2023-03-02T21:22:56.192Z,8.82
2023-03-02T21:25:23.843Z,8.79
2023-03-02T21:27:51.101Z,8.74
2023-03-02T21:30:32.521Z,8.71
2023-03-02T21:32:59.778Z,8.67
2023-03-02T21:35:27.235Z,8.64
2023-03-02T21:37:57.838Z,8.60
2023-03-02T21:40:28.410Z,8.56
2023-03-02T21:42:56.928Z,8.52
2023-03-02T21:45:23.854Z,8.45
2023-03-02T21:47:51.183Z,8.43
2023-03-02T21:50:27.547Z,8.40
2023-03-02T21:52:55.531Z,8.35
2023-03-02T21:55:22.702Z,8.30
2023-03-02T21:57:49.440Z,8.27
2023-03-02T22:00:38.639Z,8.25
2023-03-02T22:03:06.280Z,8.18
2023-03-02T22:05:33.844Z,8.11
2023-03-02T22:08:00.856Z,8.07
2023-03-02T22:10:38.192Z,8.04
2023-03-02T22:13:27.878Z,7.98
2023-03-02T22:16:16.715Z,7.93
2023-03-02T22:18:45.329Z,7.90
2023-03-02T22:21:34.787Z,7.87
2023-03-02T22:24:26.060Z,7.84
2023-03-02T22:27:04.845Z,7.81
2023-03-02T22:29:42.361Z,7.75
2023-03-02T22:32:19.995Z,7.69
2023-03-02T22:34:49.027Z,7.58
2023-03-02T22:37:18.771Z,7.50
2023-03-02T22:39:47.488Z,7.48
2023-03-02T22:42:17.900Z,7.46
2023-03-02T22:45:16.957Z,7.39
2023-03-02T22:47:45.486Z,7.33
2023-03-02T22:50:22.773Z,7.34
2023-03-02T22:52:49.849Z,7.28
2023-03-02T22:55:42.468Z,7.23
2023-03-02T22:58:47.273Z,7.18
2023-03-02T23:01:21.549Z,7.12
2023-03-02T23:03:52.396Z,7.06
2023-03-02T23:06:21.753Z,7.02
2023-03-02T23:08:48.487Z,6.94
2023-03-02T23:11:18.684Z,6.87
2023-03-02T23:13:46.333Z,6.85
2023-03-02T23:16:21.551Z,6.83
2023-03-02T23:18:48.883Z,6.83
2023-03-02T23:21:18.527Z,6.76
2023-03-02T23:23:45.944Z,6.74
2023-03-02T23:26:12.866Z,6.67
2023-03-02T23:28:39.612Z,6.62
2023-03-02T23:31:06.748Z,6.56
2023-03-02T23:33:33.601Z,6.53
2023-03-02T23:36:00.871Z,6.49
2023-03-02T23:38:27.951Z,6.49
2023-03-02T23:40:55.364Z,6.45
2023-03-02T23:43:22.222Z,6.43
2023-03-02T23:45:49.038Z,6.39
2023-03-02T23:48:16.601Z,6.36
2023-03-02T23:50:44.717Z,6.32
2023-03-02T23:53:12.199Z,6.27
2023-03-02T23:55:43.642Z,6.25
2023-03-02T23:58:10.430Z,6.17
